sensor_id;sensor_type;location;lat;lon;timestamp;temperature;humidity
5980;DHT22;3016;50.308;8.258;2023-03-01T00:01:20;-4.20;1.00
5980;DHT22;3016;50.308;8.258;2023-03-01T00:04:28;-4.20;1.00
5980;DHT22;3016;50.308;8.258;2023-03-01T00:07:28;-4.20;1.00
5980;DHT22;3016;50.308;8.258;2023-03-01T00:10:29;-4.20;1.00
5980;DHT22;3016;50.308;8.258;2023-03-01T00:13:30;-4.30;1.00
5980;DHT22;3016;50.308;8.258;2023-03-01T00:16:34;-4.30;1.00
5980;DHT22;3016;50.308;8.258;2023-03-01T00:19:40;-4.30;1.00
5980;DHT22;3016;50.308;8.258;2023-03-01T00:22:41;-4.30;1.00
5980;DHT22;3016;50.308;8.258;2023-03-01T00:25:42;-4.30;1.00
5980;DHT22;3016;50.308;8.258;2023-03-01T00:28:43;-4.30;1.00
5980;DHT22;3016;50.308;8.258;2023-03-01T00:31:44;-4.30;1.00
5980;DHT22;3016;50.308;8.258;2023-03-01T00:34:45;-4.40;1.00
5980;DHT22;3016;50.308;8.258;2023-03-01T00:37:54;-4.40;1.00
5980;DHT22;3016;50.308;8.258;2023-03-01T00:41:07;-4.40;1.00
5980;DHT22;3016;50.308;8.258;2023-03-01T00:44:09;-4.40;1.00
5980;DHT22;3016;50.308;8.258;2023-03-01T00:47:10;-4.40;1.00
5980;DHT22;3016;50.308;8.258;2023-03-01T00:50:11;-4.40;1.00
5980;DHT22;3016;50.308;8.258;2023-03-01T00:53:12;-4.40;1.00
5980;DHT22;3016;50.308;8.258;2023-03-01T00:56:14;-4.50;1.00
5980;DHT22;3016;50.308;8.258;2023-03-01T00:59:15;-4.50;1.00
5980;DHT22;3016;50.308;8.258;2023-03-01T01:02:15;-4.60;1.00
5980;DHT22;3016;50.308;8.258;2023-03-01T01:05:16;-4.60;1.00
5980;DHT22;3016;50.308;8.258;2023-03-01T01:08:21;-4.60;1.00
5980;DHT22;3016;50.308;8.258;2023-03-01T01:11:23;-4.70;1.00
5980;DHT22;3016;50.308;8.258;2023-03-01T01:14:24;-4.60;1.00
5980;DHT22;3016;50.308;8.258;2023-03-01T01:17:25;-4.60;1.00
5980;DHT22;3016;50.308;8.258;2023-03-01T01:20:26;-4.60;1.00
5980;DHT22;3016;50.308;8.258;2023-03-01T01:23:27;-4.70;1.00
5980;DHT22;3016;50.308;8.258;2023-03-01T01:26:30;-4.60;1.00
5980;DHT22;3016;50.308;8.258;2023-03-01T01:29:33;-4.60;1.00
5980;DHT22;3016;50.308;8.258;2023-03-01T01:32:33;-4.60;1.00
5980;DHT22;3016;50.308;8.258;2023-03-01T01:35:34;-4.70;1.00
5980;DHT22;3016;50.308;8.258;2023-03-01T01:38:36;-4.70;1.00
5980;DHT22;3016;50.308;8.258;2023-03-01T01:41:37;-4.70;1.00
5980;DHT22;3016;50.308;8.258;2023-03-01T01:44:39;-4.70;1.00
5980;DHT22;3016;50.308;8.258;2023-03-01T01:47:40;-4.70;1.00
5980;DHT22;3016;50.308;8.258;2023-03-01T01:50:41;-4.70;1.00
5980;DHT22;3016;50.308;8.258;2023-03-01T01:53:42;-4.70;1.00
5980;DHT22;3016;50.308;8.258;2023-03-01T01:56:49;-4.80;1.00
5980;DHT22;3016;50.308;8.258;2023-03-01T01:59:59;-4.80;1.00
5980;DHT22;3016;50.308;8.258;2023-03-01T02:03:08;-4.80;1.00
5980;DHT22;3016;50.308;8.258;2023-03-01T02:09:30;-4.80;1.00
5980;DHT22;3016;50.308;8.258;2023-03-01T02:12:32;-4.80;1.00
5980;DHT22;3016;50.308;8.258;2023-03-01T02:15:36;-4.80;1.00
5980;DHT22;3016;50.308;8.258;2023-03-01T02:18:39;-4.70;1.00
5980;DHT22;3016;50.308;8.258;2023-03-01T02:22:23;-4.70;1.00
5980;DHT22;3016;50.308;8.258;2023-03-01T02:28:46;-4.80;1.00
5980;DHT22;3016;50.308;8.258;2023-03-01T02:31:48;-4.80;1.00
5980;DHT22;3016;50.308;8.258;2023-03-01T02:34:53;-4.80;1.00
5980;DHT22;3016;50.308;8.258;2023-03-01T02:37:54;-4.80;1.00
5980;DHT22;3016;50.308;8.258;2023-03-01T02:40:57;-4.80;1.00
5980;DHT22;3016;50.308;8.258;2023-03-01T02:43:58;-4.80;1.00
5980;DHT22;3016;50.308;8.258;2023-03-01T02:47:02;-4.90;1.00
5980;DHT22;3016;50.308;8.258;2023-03-01T02:50:23;-4.90;1.00
5980;DHT22;3016;50.308;8.258;2023-03-01T02:57:08;-4.90;1.00
5980;DHT22;3016;50.308;8.258;2023-03-01T03:00:14;-5.00;1.00
5980;DHT22;3016;50.308;8.258;2023-03-01T03:03:20;-5.00;1.00
5980;DHT22;3016;50.308;8.258;2023-03-01T03:06:22;-4.90;1.00
5980;DHT22;3016;50.308;8.258;2023-03-01T03:09:22;-5.00;1.00
5980;DHT22;3016;50.308;8.258;2023-03-01T03:12:23;-5.00;1.00
5980;DHT22;3016;50.308;8.258;2023-03-01T03:15:25;-5.00;1.00
5980;DHT22;3016;50.308;8.258;2023-03-01T03:18:27;-5.00;1.00
5980;DHT22;3016;50.308;8.258;2023-03-01T03:21:28;-5.10;1.00
5980;DHT22;3016;50.308;8.258;2023-03-01T03:24:28;-5.10;1.00
5980;DHT22;3016;50.308;8.258;2023-03-01T03:27:39;-5.10;1.00
5980;DHT22;3016;50.308;8.258;2023-03-01T03:30:41;-5.10;1.00
5980;DHT22;3016;50.308;8.258;2023-03-01T03:33:43;-5.10;1.00
5980;DHT22;3016;50.308;8.258;2023-03-01T03:36:44;-5.10;1.00
5980;DHT22;3016;50.308;8.258;2023-03-01T03:39:45;-5.10;1.00
5980;DHT22;3016;50.308;8.258;2023-03-01T03:42:45;-5.10;1.00
5980;DHT22;3016;50.308;8.258;2023-03-01T03:45:48;-5.10;1.00
5980;DHT22;3016;50.308;8.258;2023-03-01T03:48:50;-5.10;1.00
5980;DHT22;3016;50.308;8.258;2023-03-01T03:51:50;-5.10;1.00
5980;DHT22;3016;50.308;8.258;2023-03-01T03:54:51;-5.10;1.00
5980;DHT22;3016;50.308;8.258;2023-03-01T03:57:52;-5.20;1.00
5980;DHT22;3016;50.308;8.258;2023-03-01T04:00:56;-5.20;1.00
5980;DHT22;3016;50.308;8.258;2023-03-01T04:03:57;-5.20;1.00
5980;DHT22;3016;50.308;8.258;2023-03-01T04:07:04;-5.20;1.00
5980;DHT22;3016;50.308;8.258;2023-03-01T04:10:07;-5.30;1.00
5980;DHT22;3016;50.308;8.258;2023-03-01T04:13:12;-5.30;1.00
5980;DHT22;3016;50.308;8.258;2023-03-01T04:16:13;-5.30;1.00
5980;DHT22;3016;50.308;8.258;2023-03-01T04:19:14;-5.30;1.00
5980;DHT22;3016;50.308;8.258;2023-03-01T04:22:15;-5.30;1.00
5980;DHT22;3016;50.308;8.258;2023-03-01T04:25:19;-5.20;1.00
5980;DHT22;3016;50.308;8.258;2023-03-01T04:28:26;-5.10;1.00
5980;DHT22;3016;50.308;8.258;2023-03-01T04:31:36;-5.10;1.00
5980;DHT22;3016;50.308;8.258;2023-03-01T04:34:37;-5.10;1.00
5980;DHT22;3016;50.308;8.258;2023-03-01T04:37:38;-5.20;1.00
5980;DHT22;3016;50.308;8.258;2023-03-01T04:40:39;-5.20;1.00
5980;DHT22;3016;50.308;8.258;2023-03-01T04:43:40;-5.20;1.00
5980;DHT22;3016;50.308;8.258;2023-03-01T04:46:40;-5.20;1.00
5980;DHT22;3016;50.308;8.258;2023-03-01T04:49:41;-5.10;1.00
5980;DHT22;3016;50.308;8.258;2023-03-01T04:52:43;-5.10;1.00
5980;DHT22;3016;50.308;8.258;2023-03-01T04:55:44;-5.10;1.00
5980;DHT22;3016;50.308;8.258;2023-03-01T04:58:45;-5.10;1.00
5980;DHT22;3016;50.308;8.258;2023-03-01T05:01:46;-5.10;1.00
5980;DHT22;3016;50.308;8.258;2023-03-01T05:04:47;-5.10;1.00
5980;DHT22;3016;50.308;8.258;2023-03-01T05:07:47;-5.10;1.00
5980;DHT22;3016;50.308;8.258;2023-03-01T05:10:50;-5.10;1.00
5980;DHT22;3016;50.308;8.258;2023-03-01T05:13:52;-5.10;1.00
5980;DHT22;3016;50.308;8.258;2023-03-01T05:16:55;-5.10;1.00
5980;DHT22;3016;50.308;8.258;2023-03-01T05:20:04;-5.10;1.00
5980;DHT22;3016;50.308;8.258;2023-03-01T05:23:11;-5.10;1.00
5980;DHT22;3016;50.308;8.258;2023-03-01T05:26:12;-5.10;1.00
5980;DHT22;3016;50.308;8.258;2023-03-01T05:29:13;-5.10;1.00
5980;DHT22;3016;50.308;8.258;2023-03-01T05:32:14;-5.20;1.00
5980;DHT22;3016;50.308;8.258;2023-03-01T05:35:17;-5.20;1.00
5980;DHT22;3016;50.308;8.258;2023-03-01T05:38:18;-5.30;1.00
5980;DHT22;3016;50.308;8.258;2023-03-01T05:41:19;-5.30;1.00
5980;DHT22;3016;50.308;8.258;2023-03-01T05:44:20;-5.20;1.00
5980;DHT22;3016;50.308;8.258;2023-03-01T05:47:21;-5.30;1.00
5980;DHT22;3016;50.308;8.258;2023-03-01T05:50:27;-5.30;1.00
5980;DHT22;3016;50.308;8.258;2023-03-01T05:53:29;-5.30;1.00
5980;DHT22;3016;50.308;8.258;2023-03-01T05:56:30;-5.30;1.00
5980;DHT22;3016;50.308;8.258;2023-03-01T05:59:33;-5.30;1.00
5980;DHT22;3016;50.308;8.258;2023-03-01T06:02:33;-5.30;1.00
5980;DHT22;3016;50.308;8.258;2023-03-01T06:05:34;-5.30;1.00
5980;DHT22;3016;50.308;8.258;2023-03-01T06:08:35;-5.40;1.00
5980;DHT22;3016;50.308;8.258;2023-03-01T06:11:36;-5.40;1.00
5980;DHT22;3016;50.308;8.258;2023-03-01T06:14:37;-5.40;1.00
5980;DHT22;3016;50.308;8.258;2023-03-01T06:17:40;-5.30;1.00
5980;DHT22;3016;50.308;8.258;2023-03-01T06:20:42;-5.30;1.00
5980;DHT22;3016;50.308;8.258;2023-03-01T06:23:43;-5.30;1.00
5980;DHT22;3016;50.308;8.258;2023-03-01T06:26:44;-5.30;1.00
5980;DHT22;3016;50.308;8.258;2023-03-01T06:29:44;-5.30;1.00
5980;DHT22;3016;50.308;8.258;2023-03-01T06:32:45;-5.20;1.60
5980;DHT22;3016;50.308;8.258;2023-03-01T06:35:47;-5.20;2.90
5980;DHT22;3016;50.308;8.258;2023-03-01T06:38:47;-5.10;3.70
5980;DHT22;3016;50.308;8.258;2023-03-01T06:41:50;-5.00;3.80
5980;DHT22;3016;50.308;8.258;2023-03-01T06:44:51;-4.90;4.40
5980;DHT22;3016;50.308;8.258;2023-03-01T06:47:57;-4.80;5.30
5980;DHT22;3016;50.308;8.258;2023-03-01T06:51:02;-4.60;5.20
5980;DHT22;3016;50.308;8.258;2023-03-01T06:54:04;-4.60;5.00
5980;DHT22;3016;50.308;8.258;2023-03-01T06:57:05;-4.50;4.00
5980;DHT22;3016;50.308;8.258;2023-03-01T07:00:07;-4.40;2.50
5980;DHT22;3016;50.308;8.258;2023-03-01T07:03:09;-4.30;1.20
5980;DHT22;3016;50.308;8.258;2023-03-01T07:06:10;-4.20;1.00
5980;DHT22;3016;50.308;8.258;2023-03-01T07:09:11;-4.10;1.00
5980;DHT22;3016;50.308;8.258;2023-03-01T07:12:12;-4.00;1.00
5980;DHT22;3016;50.308;8.258;2023-03-01T07:15:13;-3.90;1.00
5980;DHT22;3016;50.308;8.258;2023-03-01T07:18:15;-3.90;1.00
5980;DHT22;3016;50.308;8.258;2023-03-01T07:21:17;-3.70;1.00
5980;DHT22;3016;50.308;8.258;2023-03-01T07:24:18;-3.60;1.00
5980;DHT22;3016;50.308;8.258;2023-03-01T07:27:19;-3.50;1.00
5980;DHT22;3016;50.308;8.258;2023-03-01T07:30:23;-3.40;1.00
5980;DHT22;3016;50.308;8.258;2023-03-01T07:33:26;-3.20;1.00
5980;DHT22;3016;50.308;8.258;2023-03-01T07:36:27;-2.90;1.00
5980;DHT22;3016;50.308;8.258;2023-03-01T07:39:29;-2.70;1.00
5980;DHT22;3016;50.308;8.258;2023-03-01T07:42:30;-2.50;1.00
5980;DHT22;3016;50.308;8.258;2023-03-01T07:45:30;-2.10;1.00
5980;DHT22;3016;50.308;8.258;2023-03-01T07:48:32;-1.90;1.00
5980;DHT22;3016;50.308;8.258;2023-03-01T07:51:33;-1.50;1.00
5980;DHT22;3016;50.308;8.258;2023-03-01T07:54:34;-1.20;1.00
5980;DHT22;3016;50.308;8.258;2023-03-01T07:57:34;-1.00;1.00
5980;DHT22;3016;50.308;8.258;2023-03-01T08:00:35;-0.90;1.00
5980;DHT22;3016;50.308;8.258;2023-03-01T08:03:36;-0.70;1.00
5980;DHT22;3016;50.308;8.258;2023-03-01T08:06:37;-0.50;1.00
5980;DHT22;3016;50.308;8.258;2023-03-01T08:09:38;-0.40;1.00
5980;DHT22;3016;50.308;8.258;2023-03-01T08:12:38;-0.20;1.00
5980;DHT22;3016;50.308;8.258;2023-03-01T08:15:39;0.00;1.00
5980;DHT22;3016;50.308;8.258;2023-03-01T08:18:40;0.10;1.00
5980;DHT22;3016;50.308;8.258;2023-03-01T08:21:40;0.20;1.00
5980;DHT22;3016;50.308;8.258;2023-03-01T08:24:41;0.40;1.00
5980;DHT22;3016;50.308;8.258;2023-03-01T08:27:42;0.50;1.00
5980;DHT22;3016;50.308;8.258;2023-03-01T08:30:42;0.60;1.00
5980;DHT22;3016;50.308;8.258;2023-03-01T08:33:43;0.70;1.00
5980;DHT22;3016;50.308;8.258;2023-03-01T08:36:46;0.70;1.00
5980;DHT22;3016;50.308;8.258;2023-03-01T08:39:47;0.90;1.00
5980;DHT22;3016;50.308;8.258;2023-03-01T08:42:47;1.00;1.00
5980;DHT22;3016;50.308;8.258;2023-03-01T08:45:48;1.20;1.00
5980;DHT22;3016;50.308;8.258;2023-03-01T08:48:49;1.30;1.00
5980;DHT22;3016;50.308;8.258;2023-03-01T08:51:50;1.40;1.00
5980;DHT22;3016;50.308;8.258;2023-03-01T08:54:50;1.60;1.00
5980;DHT22;3016;50.308;8.258;2023-03-01T08:57:51;1.70;1.00
5980;DHT22;3016;50.308;8.258;2023-03-01T09:00:52;1.80;1.00
5980;DHT22;3016;50.308;8.258;2023-03-01T09:03:53;2.00;1.00
5980;DHT22;3016;50.308;8.258;2023-03-01T09:06:53;1.90;1.00
5980;DHT22;3016;50.308;8.258;2023-03-01T09:09:54;2.10;1.00
5980;DHT22;3016;50.308;8.258;2023-03-01T09:12:55;2.30;1.00
5980;DHT22;3016;50.308;8.258;2023-03-01T09:15:56;2.50;1.00
5980;DHT22;3016;50.308;8.258;2023-03-01T09:18:57;2.60;1.00
5980;DHT22;3016;50.308;8.258;2023-03-01T09:21:58;2.70;1.00
5980;DHT22;3016;50.308;8.258;2023-03-01T09:24:58;2.80;1.00
5980;DHT22;3016;50.308;8.258;2023-03-01T09:27:59;2.90;1.00
5980;DHT22;3016;50.308;8.258;2023-03-01T09:31:01;2.90;1.00
5980;DHT22;3016;50.308;8.258;2023-03-01T09:34:02;3.00;1.00
5980;DHT22;3016;50.308;8.258;2023-03-01T09:37:03;3.00;1.00
5980;DHT22;3016;50.308;8.258;2023-03-01T09:40:05;3.20;1.00
5980;DHT22;3016;50.308;8.258;2023-03-01T09:43:18;3.30;1.00
5980;DHT22;3016;50.308;8.258;2023-03-01T09:46:27;3.50;1.00
5980;DHT22;3016;50.308;8.258;2023-03-01T09:49:31;3.50;1.00
5980;DHT22;3016;50.308;8.258;2023-03-01T09:52:50;3.50;1.00
5980;DHT22;3016;50.308;8.258;2023-03-01T09:56:05;3.60;1.00
5980;DHT22;3016;50.308;8.258;2023-03-01T10:02:35;3.90;1.00
5980;DHT22;3016;50.308;8.258;2023-03-01T10:05:46;3.60;1.00
5980;DHT22;3016;50.308;8.258;2023-03-01T10:09:10;3.70;1.00
5980;DHT22;3016;50.308;8.258;2023-03-01T10:12:25;3.70;1.00
5980;DHT22;3016;50.308;8.258;2023-03-01T10:15:41;3.80;1.00
5980;DHT22;3016;50.308;8.258;2023-03-01T10:18:47;4.10;1.00
5980;DHT22;3016;50.308;8.258;2023-03-01T10:21:54;4.20;1.00
5980;DHT22;3016;50.308;8.258;2023-03-01T10:25:01;4.40;1.00
5980;DHT22;3016;50.308;8.258;2023-03-01T10:28:17;4.60;1.00
5980;DHT22;3016;50.308;8.258;2023-03-01T10:31:38;4.90;1.00
5980;DHT22;3016;50.308;8.258;2023-03-01T10:34:49;5.10;1.00
5980;DHT22;3016;50.308;8.258;2023-03-01T10:38:16;4.90;1.00
5980;DHT22;3016;50.308;8.258;2023-03-01T10:41:19;4.80;1.00
5980;DHT22;3016;50.308;8.258;2023-03-01T10:47:40;5.10;1.00
5980;DHT22;3016;50.308;8.258;2023-03-01T10:50:46;5.20;1.00
5980;DHT22;3016;50.308;8.258;2023-03-01T10:53:49;5.40;1.00
5980;DHT22;3016;50.308;8.258;2023-03-01T10:56:54;5.40;1.00
5980;DHT22;3016;50.308;8.258;2023-03-01T11:00:20;5.30;1.00
5980;DHT22;3016;50.308;8.258;2023-03-01T11:03:36;5.50;1.00
5980;DHT22;3016;50.308;8.258;2023-03-01T11:06:40;5.70;1.00
5980;DHT22;3016;50.308;8.258;2023-03-01T11:09:41;5.80;1.00
5980;DHT22;3016;50.308;8.258;2023-03-01T11:12:42;5.80;1.00
5980;DHT22;3016;50.308;8.258;2023-03-01T11:15:59;5.80;1.00
5980;DHT22;3016;50.308;8.258;2023-03-01T11:22:19;5.80;1.00
5980;DHT22;3016;50.308;8.258;2023-03-01T11:25:27;5.60;1.00
5980;DHT22;3016;50.308;8.258;2023-03-01T11:28:32;5.80;1.00
5980;DHT22;3016;50.308;8.258;2023-03-01T11:31:36;6.10;1.00
5980;DHT22;3016;50.308;8.258;2023-03-01T11:38:09;6.40;1.00
5980;DHT22;3016;50.308;8.258;2023-03-01T11:41:34;6.60;1.00
5980;DHT22;3016;50.308;8.258;2023-03-01T11:44:37;6.90;1.00
5980;DHT22;3016;50.308;8.258;2023-03-01T11:51:41;7.10;1.00
5980;DHT22;3016;50.308;8.258;2023-03-01T12:01:54;7.40;1.00
5980;DHT22;3016;50.308;8.258;2023-03-01T12:08:36;6.90;1.00
5980;DHT22;3016;50.308;8.258;2023-03-01T12:19:26;7.30;1.00
5980;DHT22;3016;50.308;8.258;2023-03-01T12:29:25;6.90;1.00
5980;DHT22;3016;50.308;8.258;2023-03-01T12:49:54;7.90;1.00
5980;DHT22;3016;50.308;8.258;2023-03-01T12:52:58;7.60;1.00
5980;DHT22;3016;50.308;8.258;2023-03-01T12:56:12;7.50;1.00
5980;DHT22;3016;50.308;8.258;2023-03-01T13:06:47;7.80;1.00
5980;DHT22;3016;50.308;8.258;2023-03-01T13:13:43;8.10;1.00
5980;DHT22;3016;50.308;8.258;2023-03-01T13:37:10;7.90;1.00
5980;DHT22;3016;50.308;8.258;2023-03-01T13:43:27;8.60;1.00
5980;DHT22;3016;50.308;8.258;2023-03-01T13:53:06;8.50;1.00
5980;DHT22;3016;50.308;8.258;2023-03-01T14:40:37;7.70;1.00
5980;DHT22;3016;50.308;8.258;2023-03-01T16:09:25;6.30;1.00
5980;DHT22;3016;50.308;8.258;2023-03-01T16:12:26;6.20;1.00
5980;DHT22;3016;50.308;8.258;2023-03-01T16:15:29;6.10;1.00
5980;DHT22;3016;50.308;8.258;2023-03-01T16:31:22;5.80;1.00
5980;DHT22;3016;50.308;8.258;2023-03-01T16:34:24;5.80;1.00
5980;DHT22;3016;50.308;8.258;2023-03-01T16:37:33;5.70;1.00
5980;DHT22;3016;50.308;8.258;2023-03-01T16:40:38;5.60;1.00
5980;DHT22;3016;50.308;8.258;2023-03-01T16:43:41;5.50;1.00
5980;DHT22;3016;50.308;8.258;2023-03-01T16:46:59;5.40;1.00
5980;DHT22;3016;50.308;8.258;2023-03-01T16:50:04;5.30;1.00
5980;DHT22;3016;50.308;8.258;2023-03-01T16:53:09;5.20;1.00
5980;DHT22;3016;50.308;8.258;2023-03-01T16:56:14;5.10;1.00
5980;DHT22;3016;50.308;8.258;2023-03-01T16:59:17;5.00;1.00
5980;DHT22;3016;50.308;8.258;2023-03-01T17:02:19;5.00;1.00
5980;DHT22;3016;50.308;8.258;2023-03-01T17:05:21;4.90;1.00
5980;DHT22;3016;50.308;8.258;2023-03-01T17:08:24;4.80;1.00
5980;DHT22;3016;50.308;8.258;2023-03-01T17:14:32;4.60;1.00
5980;DHT22;3016;50.308;8.258;2023-03-01T17:17:34;4.50;1.00
5980;DHT22;3016;50.308;8.258;2023-03-01T17:20:35;4.40;1.00
5980;DHT22;3016;50.308;8.258;2023-03-01T17:23:38;4.30;1.00
5980;DHT22;3016;50.308;8.258;2023-03-01T17:26:40;4.20;1.00
5980;DHT22;3016;50.308;8.258;2023-03-01T17:29:41;4.10;1.00
5980;DHT22;3016;50.308;8.258;2023-03-01T17:35:56;4.10;1.00
5980;DHT22;3016;50.308;8.258;2023-03-01T17:49:35;3.90;1.00
5980;DHT22;3016;50.308;8.258;2023-03-01T17:52:35;3.80;1.00
5980;DHT22;3016;50.308;8.258;2023-03-01T17:55:38;3.60;1.00
5980;DHT22;3016;50.308;8.258;2023-03-01T17:58:41;3.50;1.00
5980;DHT22;3016;50.308;8.258;2023-03-01T18:01:42;3.40;1.00
5980;DHT22;3016;50.308;8.258;2023-03-01T18:04:43;3.30;1.00
5980;DHT22;3016;50.308;8.258;2023-03-01T18:07:44;3.30;1.00
5980;DHT22;3016;50.308;8.258;2023-03-01T18:10:45;3.10;1.00
5980;DHT22;3016;50.308;8.258;2023-03-01T18:13:46;2.90;1.00
5980;DHT22;3016;50.308;8.258;2023-03-01T18:16:51;2.90;1.00
5980;DHT22;3016;50.308;8.258;2023-03-01T18:19:59;2.80;1.00
5980;DHT22;3016;50.308;8.258;2023-03-01T18:23:00;2.60;1.00
5980;DHT22;3016;50.308;8.258;2023-03-01T18:32:27;2.20;1.00
5980;DHT22;3016;50.308;8.258;2023-03-01T18:35:39;2.10;1.00
5980;DHT22;3016;50.308;8.258;2023-03-01T18:38:42;2.00;1.00
5980;DHT22;3016;50.308;8.258;2023-03-01T18:41:43;1.90;1.00
5980;DHT22;3016;50.308;8.258;2023-03-01T18:44:44;1.80;1.00
5980;DHT22;3016;50.308;8.258;2023-03-01T18:47:46;1.70;1.00
5980;DHT22;3016;50.308;8.258;2023-03-01T18:50:57;1.70;1.00
5980;DHT22;3016;50.308;8.258;2023-03-01T18:54:12;1.60;1.00
5980;DHT22;3016;50.308;8.258;2023-03-01T18:57:14;1.70;1.00
5980;DHT22;3016;50.308;8.258;2023-03-01T19:00:26;1.70;1.00
5980;DHT22;3016;50.308;8.258;2023-03-01T19:03:30;1.60;1.00
5980;DHT22;3016;50.308;8.258;2023-03-01T19:06:33;1.60;1.00
5980;DHT22;3016;50.308;8.258;2023-03-01T19:09:39;1.50;1.00
5980;DHT22;3016;50.308;8.258;2023-03-01T19:12:42;1.40;1.00
5980;DHT22;3016;50.308;8.258;2023-03-01T19:15:46;1.30;1.00
5980;DHT22;3016;50.308;8.258;2023-03-01T19:18:47;1.30;1.00
5980;DHT22;3016;50.308;8.258;2023-03-01T19:21:51;1.20;1.00
5980;DHT22;3016;50.308;8.258;2023-03-01T19:24:53;1.10;1.00
5980;DHT22;3016;50.308;8.258;2023-03-01T19:31:07;0.90;1.00
5980;DHT22;3016;50.308;8.258;2023-03-01T19:34:10;0.80;1.00
5980;DHT22;3016;50.308;8.258;2023-03-01T19:37:11;0.80;1.00
5980;DHT22;3016;50.308;8.258;2023-03-01T19:43:23;0.70;1.00
5980;DHT22;3016;50.308;8.258;2023-03-01T19:46:25;0.70;1.00
5980;DHT22;3016;50.308;8.258;2023-03-01T19:49:25;0.70;1.00
5980;DHT22;3016;50.308;8.258;2023-03-01T19:56:23;1.00;1.00
5980;DHT22;3016;50.308;8.258;2023-03-01T19:59:24;0.90;1.00
5980;DHT22;3016;50.308;8.258;2023-03-01T20:02:27;0.90;1.00
5980;DHT22;3016;50.308;8.258;2023-03-01T20:05:34;0.90;1.00
5980;DHT22;3016;50.308;8.258;2023-03-01T20:08:36;0.90;1.00
5980;DHT22;3016;50.308;8.258;2023-03-01T20:11:38;0.80;1.00
5980;DHT22;3016;50.308;8.258;2023-03-01T20:14:42;0.70;1.00
5980;DHT22;3016;50.308;8.258;2023-03-01T20:17:47;0.60;1.00
5980;DHT22;3016;50.308;8.258;2023-03-01T20:20:49;0.50;1.00
5980;DHT22;3016;50.308;8.258;2023-03-01T20:23:51;0.40;1.00
5980;DHT22;3016;50.308;8.258;2023-03-01T20:26:56;0.30;1.00
5980;DHT22;3016;50.308;8.258;2023-03-01T20:29:58;0.20;1.00
5980;DHT22;3016;50.308;8.258;2023-03-01T20:33:00;0.10;1.00
5980;DHT22;3016;50.308;8.258;2023-03-01T20:36:03;0.00;1.00
5980;DHT22;3016;50.308;8.258;2023-03-01T20:39:05;-0.10;1.00
5980;DHT22;3016;50.308;8.258;2023-03-01T20:42:07;-0.20;1.00
5980;DHT22;3016;50.308;8.258;2023-03-01T20:45:10;-0.30;1.00
5980;DHT22;3016;50.308;8.258;2023-03-01T20:48:11;-0.30;1.00
5980;DHT22;3016;50.308;8.258;2023-03-01T20:51:13;-0.30;1.00
5980;DHT22;3016;50.308;8.258;2023-03-01T20:54:15;-0.40;1.00
5980;DHT22;3016;50.308;8.258;2023-03-01T20:57:19;-0.40;1.00
5980;DHT22;3016;50.308;8.258;2023-03-01T21:00:23;-0.50;1.00
5980;DHT22;3016;50.308;8.258;2023-03-01T21:03:30;-0.60;1.00
5980;DHT22;3016;50.308;8.258;2023-03-01T21:06:35;-0.60;1.00
5980;DHT22;3016;50.308;8.258;2023-03-01T21:09:38;-0.60;1.00
5980;DHT22;3016;50.308;8.258;2023-03-01T21:12:41;-0.60;1.00
5980;DHT22;3016;50.308;8.258;2023-03-01T21:15:52;-0.70;1.00
5980;DHT22;3016;50.308;8.258;2023-03-01T21:19:00;-0.70;1.00
5980;DHT22;3016;50.308;8.258;2023-03-01T21:22:06;-0.80;1.00
5980;DHT22;3016;50.308;8.258;2023-03-01T21:25:08;-0.90;1.00
5980;DHT22;3016;50.308;8.258;2023-03-01T21:28:14;-1.00;1.00
5980;DHT22;3016;50.308;8.258;2023-03-01T21:31:21;-1.00;1.00
5980;DHT22;3016;50.308;8.258;2023-03-01T21:34:24;-1.10;1.00
5980;DHT22;3016;50.308;8.258;2023-03-01T21:37:30;-1.10;1.00
5980;DHT22;3016;50.308;8.258;2023-03-01T21:40:35;-1.20;1.00
5980;DHT22;3016;50.308;8.258;2023-03-01T21:43:39;-1.20;1.00
5980;DHT22;3016;50.308;8.258;2023-03-01T21:46:41;-1.20;1.00
5980;DHT22;3016;50.308;8.258;2023-03-01T21:49:42;-1.20;1.00
5980;DHT22;3016;50.308;8.258;2023-03-01T21:52:44;-1.20;1.00
5980;DHT22;3016;50.308;8.258;2023-03-01T21:55:46;-1.20;1.00
5980;DHT22;3016;50.308;8.258;2023-03-01T21:58:49;-1.30;1.00
5980;DHT22;3016;50.308;8.258;2023-03-01T22:01:52;-1.30;1.00
5980;DHT22;3016;50.308;8.258;2023-03-01T22:04:54;-1.30;1.00
5980;DHT22;3016;50.308;8.258;2023-03-01T22:08:01;-1.30;1.00
5980;DHT22;3016;50.308;8.258;2023-03-01T22:11:03;-1.30;1.00
5980;DHT22;3016;50.308;8.258;2023-03-01T22:14:05;-1.40;1.00
5980;DHT22;3016;50.308;8.258;2023-03-01T22:17:07;-1.40;1.00
5980;DHT22;3016;50.308;8.258;2023-03-01T22:20:09;-1.40;1.00
5980;DHT22;3016;50.308;8.258;2023-03-01T22:23:11;-1.40;1.00
5980;DHT22;3016;50.308;8.258;2023-03-01T22:26:31;-1.50;1.00
5980;DHT22;3016;50.308;8.258;2023-03-01T22:29:34;-1.50;1.00
5980;DHT22;3016;50.308;8.258;2023-03-01T22:32:36;-1.50;1.00
5980;DHT22;3016;50.308;8.258;2023-03-01T22:35:43;-1.60;1.00
5980;DHT22;3016;50.308;8.258;2023-03-01T22:38:45;-1.60;1.00
5980;DHT22;3016;50.308;8.258;2023-03-01T22:41:48;-1.60;1.00
5980;DHT22;3016;50.308;8.258;2023-03-01T22:44:50;-1.60;1.00
5980;DHT22;3016;50.308;8.258;2023-03-01T22:47:52;-1.60;1.00
5980;DHT22;3016;50.308;8.258;2023-03-01T22:50:54;-1.60;1.00
5980;DHT22;3016;50.308;8.258;2023-03-01T22:53:56;-1.70;1.00
5980;DHT22;3016;50.308;8.258;2023-03-01T22:57:00;-1.70;1.00
5980;DHT22;3016;50.308;8.258;2023-03-01T23:00:05;-1.70;1.00
5980;DHT22;3016;50.308;8.258;2023-03-01T23:03:12;-1.80;1.00
5980;DHT22;3016;50.308;8.258;2023-03-01T23:06:19;-1.80;1.00
5980;DHT22;3016;50.308;8.258;2023-03-01T23:09:27;-1.80;1.00
5980;DHT22;3016;50.308;8.258;2023-03-01T23:12:30;-1.80;1.00
5980;DHT22;3016;50.308;8.258;2023-03-01T23:15:31;-1.90;1.00
5980;DHT22;3016;50.308;8.258;2023-03-01T23:18:32;-1.90;1.00
5980;DHT22;3016;50.308;8.258;2023-03-01T23:21:34;-1.90;1.00
5980;DHT22;3016;50.308;8.258;2023-03-01T23:24:36;-1.90;1.00
5980;DHT22;3016;50.308;8.258;2023-03-01T23:27:37;-2.00;1.00
5980;DHT22;3016;50.308;8.258;2023-03-01T23:30:39;-2.00;1.00
5980;DHT22;3016;50.308;8.258;2023-03-01T23:33:43;-2.10;1.00
5980;DHT22;3016;50.308;8.258;2023-03-01T23:36:45;-2.10;1.00
5980;DHT22;3016;50.308;8.258;2023-03-01T23:39:47;-2.20;1.00
5980;DHT22;3016;50.308;8.258;2023-03-01T23:42:49;-2.20;1.00
5980;DHT22;3016;50.308;8.258;2023-03-01T23:45:53;-2.30;1.00
5980;DHT22;3016;50.308;8.258;2023-03-01T23:48:55;-2.30;1.00
5980;DHT22;3016;50.308;8.258;2023-03-01T23:51:56;-2.40;1.00
5980;DHT22;3016;50.308;8.258;2023-03-01T23:54:58;-2.40;1.00
5980;DHT22;3016;50.308;8.258;2023-03-01T23:58:00;-2.40;1.00
